TNCMTAPA

Guest
Details From TNCM - St Maarten - Princess Juliana Intl
To TAPA - Antigua - V C Bird Intl
Flight Number -
Tags generated
Created
Modified
Stats Distance 93 nm / 172 km
Max Altitude 11,400 ft / 3,475 m
Waypoints 3
Social Downloads 11
Likes 0
Share VATSIM

Download

Looking for another format? Having issues loading an existing format? Contact us
Advertisement - Login to hide

Notes

Basic altitude profile: - Ascent Rate: 2500ft/min - Ascent Speed: 250kts - Cruise Altitude: 35000ft - Cruise Speed: 420kts - Descent Rate: 1500ft/min - Descent Speed: 250kts Options: - Use NATs: yes - Use PACOTS: yes - Use low airways: yes - Use high airways: yes

Route

TNCM ELOPO TAPA

ID Type Via Altitude Latitude Longitude Leg Dist Tot Dist Heading (true) Name
O TNCM APT - 0 ft / 0 m 18.04089˚ -63.10897˚ - 0 nm - St Maarten - Princess Juliana Intl
ELOPO FIX - 11,400 ft / 3,475 m 17.65006˚ -62.55439˚ 39 nm 39 nm 126° / 127° -
O TAPA APT - 0 ft / 0 m 17.13674˚ -61.79266˚ 53 nm 92 nm 125° / 125° Antigua - V C Bird Intl

Altitude Profile

Advertisement - Login to hide

TNCM

Details ICAO TNCM (SXM)
Name St Maarten - Princess Juliana Intl
Region Caribbean Netherlands, Aruba, Curaçao, Sint Maarten
Timezone Unknown (UTC+0.0)
Stats Elevation 12 ft / 4 m (AMSL)
Location 18.040889° -63.108974°
Runways 1
Magnetic Variation 14.337° W

METAR

TNCM 201400Z 09013KT 050V140 9999 SCT018 28/21 Q1019 A3009 NOSIG

Decode

TAF

TAF TAF TNCM 201132Z 2012/2112 07010KT P6SM SCT018 FM201300 09015KT P6SM VCSH SCT020 FM202300 09010KT P6SM SCT018

Decode

Departure Runways

ID Width Length Bearing (true) Bearing (mag) Surface Threshold Offset Overrun Length
10 148 ft / 45 m 7,464 ft / 2,275 m 81.43° 95.77° Asphalt 0 ft / 0 m 151 ft / 46 m
28 148 ft / 45 m 7,464 ft / 2,275 m 261.44° 275.78° Asphalt 397 ft / 121 m 0 ft / 0 m

TAPA

Details ICAO TAPA (ANU)
Name Antigua - V C Bird Intl
Region Antigua and Barbuda
Timezone America/Antigua (UTC-4.0)
Stats Elevation 62 ft / 19 m (AMSL)
Location 17.136737° -61.792662°
Runways 1
Magnetic Variation 14.776° W

METAR

TAPA 201400Z 09010KT 9999 SCT018 29/22 Q1018 NOSIG

Decode

TAF

TAF TAPA 200500Z 2006/2106 08014KT 9999 SCT020 PROB40 TEMPO 2010/2102 08015G25KT SHRA

Decode

Destination Runways

ID Width Length Bearing (true) Bearing (mag) Surface Threshold Offset Overrun Length
07 148 ft / 45 m 9,022 ft / 2,750 m 58.28° 73.06° Asphalt 656 ft / 200 m 0 ft / 0 m
25 148 ft / 45 m 9,022 ft / 2,750 m 238.29° 253.07° Asphalt 0 ft / 0 m 0 ft / 0 m

Popular Alternatives